createdAt,value
2023-03-01T00:05:05.648Z,99.90
2023-03-01T00:30:55.585Z,99.90
2023-03-01T00:51:21.354Z,99.30
2023-03-01T01:06:10.269Z,99.90
2023-03-01T01:31:25.855Z,99.90
2023-03-01T02:57:52.943Z,99.90
2023-03-01T03:23:13.801Z,99.90
2023-03-01T03:43:25.721Z,99.90
2023-03-01T04:03:26.663Z,99.90
2023-03-01T04:34:19.088Z,99.90
2023-03-01T04:48:39.920Z,99.90
2023-03-01T04:58:54.407Z,99.90
2023-03-01T05:24:43.956Z,99.90
2023-03-01T06:30:35.043Z,97.50
2023-03-01T07:00:52.404Z,92.30
2023-03-01T07:36:35.991Z,90.00
2023-03-01T08:01:33.937Z,87.90
2023-03-01T08:22:02.231Z,85.10
2023-03-01T08:52:30.079Z,84.90
2023-03-01T09:02:36.735Z,84.80
2023-03-01T09:17:49.912Z,83.70
2023-03-01T10:17:58.565Z,85.10
2023-03-01T10:22:15.061Z,84.50
2023-03-01T10:42:35.529Z,85.00
2023-03-01T11:53:47.679Z,83.90
2023-03-01T12:29:26.568Z,83.80
2023-03-01T12:54:22.598Z,84.00
2023-03-01T13:50:47.601Z,83.40
2023-03-01T15:21:42.675Z,86.40
2023-03-01T15:41:51.101Z,88.50
2023-03-01T16:17:30.759Z,88.30
2023-03-01T17:18:42.126Z,93.40
2023-03-01T17:43:28.786Z,98.20
2023-03-01T18:04:16.401Z,99.90
2023-03-01T19:55:31.303Z,99.90
2023-03-01T20:20:55.896Z,99.90
2023-03-01T21:21:56.330Z,99.90
2023-03-01T21:57:17.615Z,99.90
2023-03-01T22:27:34.403Z,99.90
2023-03-01T22:53:04.933Z,99.90
2023-03-01T23:13:32.306Z,99.90
2023-03-01T23:48:44.372Z,99.90
